KLSE

La Crosse Regional Airport

La Crosse, Wisconsin, USA
METAR KLSE 140553Z AUTO 12005KT 9SM CLR 21/19 A2999 RMK AO2 SLP144 T02110189 10306 20211 403330200 50002
Observed Flight Rules
Aug-14 @ 05:53 UTC (50 minutes ago) Visual Flight Rules
Wind Visibility Clouds
120° at 5 knots 9 miles
  • Clear skies
Temperatures Readings
Current 21°C / 70°F
Dewpoint 19°C / 66°F
Humidity 88%
Altimeter 29.99" Hg
Pressure 1014.4 hPa
Elevation 199
METAR KLSE 140553Z AUTO 12005KT 9SM CLR 21/19 A2999 RMK AO2 SLP144 T02110189 10306 20211 403330200 50002
Observed Flight Rules
Aug-14 @ 05:53 UTC
(50 minutes ago)
VFR
Wind Visibility
120° at 5 knots 9 miles
Clouds
  • Clear skies
Temperature Dewpoint
21°C / 70°F 19°C / 66°F
Humidity Altimeter Pressure
88% 29.99" Hg 1014.4 hPa